createdAt,value
2019-01-31T00:01:03.531Z,4.52
2019-01-31T00:03:46.787Z,4.51
2019-01-31T00:06:26.373Z,4.48
2019-01-31T00:09:18.164Z,4.46
2019-01-31T00:12:00.430Z,4.45
2019-01-31T00:14:43.132Z,4.42
2019-01-31T00:17:48.910Z,4.39
2019-01-31T00:20:49.719Z,4.36
2019-01-31T00:23:46.129Z,4.32
2019-01-31T00:26:46.868Z,4.30
2019-01-31T00:29:35.950Z,4.27
2019-01-31T00:33:01.045Z,4.24
2019-01-31T00:35:46.838Z,4.21
2019-01-31T00:38:32.551Z,4.18
2019-01-31T00:41:21.290Z,4.14
2019-01-31T00:44:14.664Z,4.10
2019-01-31T00:47:08.028Z,4.07
2019-01-31T00:50:10.125Z,4.05
2019-01-31T00:53:04.763Z,4.02
2019-01-31T00:55:44.633Z,3.99
2019-01-31T00:58:30.793Z,3.98
2019-01-31T01:01:22.637Z,3.92
2019-01-31T01:04:32.532Z,3.87
2019-01-31T01:07:06.734Z,3.83
2019-01-31T01:10:07.507Z,3.79
2019-01-31T01:13:11.535Z,3.74
2019-01-31T01:15:51.324Z,3.67
2019-01-31T01:18:31.390Z,3.58
2019-01-31T01:21:14.179Z,3.51
2019-01-31T01:24:00.082Z,3.44
2019-01-31T01:26:56.212Z,3.35
2019-01-31T01:29:33.060Z,3.23
2019-01-31T01:32:18.899Z,3.13
2019-01-31T01:35:09.140Z,3.02
2019-01-31T01:38:01.011Z,2.92
2019-01-31T01:40:46.992Z,2.83
2019-01-31T01:43:26.912Z,2.72
2019-01-31T01:46:30.890Z,2.61
2019-01-31T01:49:10.624Z,2.54
2019-01-31T01:51:50.705Z,2.43
2019-01-31T01:55:12.710Z,2.34
2019-01-31T01:58:05.992Z,2.25
2019-01-31T02:00:52.067Z,2.15
2019-01-31T02:03:44.150Z,2.10
2019-01-31T02:06:30.373Z,2.04
2019-01-31T02:09:12.814Z,1.98
2019-01-31T02:12:14.107Z,1.93
2019-01-31T02:15:15.296Z,1.87
2019-01-31T02:17:52.395Z,1.82
2019-01-31T02:20:50.385Z,1.78
2019-01-31T02:23:51.285Z,1.74
2019-01-31T02:26:40.412Z,1.73
2019-01-31T02:29:23.071Z,1.70
2019-01-31T02:32:08.266Z,1.68
2019-01-31T02:35:03.489Z,1.69
2019-01-31T02:37:40.240Z,1.66
2019-01-31T02:40:48.841Z,1.66
2019-01-31T02:43:45.321Z,1.66
2019-01-31T02:46:22.315Z,1.64
2019-01-31T02:49:03.674Z,1.62
2019-01-31T02:51:52.759Z,1.61
2019-01-31T02:54:29.664Z,1.59
2019-01-31T02:57:18.474Z,1.59
2019-01-31T03:00:25.629Z,1.57
2019-01-31T03:03:11.395Z,1.56
2019-01-31T03:06:09.072Z,1.55
2019-01-31T03:08:51.918Z,1.53
2019-01-31T03:11:26.182Z,1.48
2019-01-31T03:14:10.144Z,1.44
2019-01-31T03:16:44.672Z,1.38
2019-01-31T03:19:30.590Z,1.34
2019-01-31T03:22:34.781Z,1.28
2019-01-31T03:25:14.915Z,1.21
2019-01-31T03:28:06.972Z,1.14
2019-01-31T03:31:17.258Z,1.07
2019-01-31T03:34:28.965Z,0.98
2019-01-31T03:37:14.921Z,0.91
2019-01-31T03:40:26.455Z,0.81
2019-01-31T03:43:18.502Z,0.73
2019-01-31T03:46:12.034Z,0.64
2019-01-31T03:48:52.048Z,0.55
2019-01-31T03:51:36.995Z,0.49
2019-01-31T03:54:23.002Z,0.40
2019-01-31T03:57:19.299Z,0.33
2019-01-31T03:59:53.173Z,0.25
2019-01-31T04:02:45.034Z,0.18
2019-01-31T04:05:25.221Z,0.12
2019-01-31T04:07:54.853Z,0.05
2019-01-31T04:10:24.464Z,-0.02
2019-01-31T04:12:54.119Z,-0.07
2019-01-31T04:15:23.769Z,-0.13
2019-01-31T04:17:53.300Z,-0.17
2019-01-31T04:20:22.904Z,-0.21
2019-01-31T04:22:52.606Z,-0.24
2019-01-31T04:25:22.269Z,-0.27
2019-01-31T04:27:51.942Z,-0.29
2019-01-31T04:30:21.731Z,-0.29
2019-01-31T04:32:51.478Z,-0.31
2019-01-31T04:35:21.079Z,-0.29
2019-01-31T04:37:50.735Z,-0.28
2019-01-31T04:40:31.061Z,-0.26
2019-01-31T04:42:51.757Z,-0.24
2019-01-31T04:45:21.259Z,-0.21
2019-01-31T04:47:50.827Z,-0.17
2019-01-31T04:50:20.450Z,-0.14
2019-01-31T04:52:50.070Z,-0.10
2019-01-31T04:55:19.692Z,-0.05
2019-01-31T04:57:49.252Z,-0.02
2019-01-31T05:00:19.624Z,0.04
2019-01-31T05:02:49.889Z,0.10
2019-01-31T05:05:19.614Z,0.16
2019-01-31T05:07:49.253Z,0.21
2019-01-31T05:10:18.841Z,0.27
2019-01-31T05:12:48.516Z,0.31
2019-01-31T05:15:18.139Z,0.36
2019-01-31T05:17:47.721Z,0.42
2019-01-31T05:20:18.541Z,0.46
2019-01-31T05:22:48.249Z,0.52
2019-01-31T05:25:17.920Z,0.56
2019-01-31T05:27:47.422Z,0.60
2019-01-31T05:30:17.880Z,0.67
2019-01-31T05:32:47.568Z,0.70
2019-01-31T05:35:17.225Z,0.75
2019-01-31T05:37:46.835Z,0.80
2019-01-31T05:40:16.671Z,0.85
2019-01-31T05:42:46.256Z,0.88
2019-01-31T05:45:16.779Z,0.91
2019-01-31T05:47:46.444Z,0.93
2019-01-31T05:50:19.469Z,0.94
2019-01-31T05:52:49.049Z,0.96
2019-01-31T05:55:18.647Z,0.98
2019-01-31T05:57:48.110Z,1.01
2019-01-31T06:00:25.126Z,1.04
2019-01-31T06:02:54.611Z,1.08
2019-01-31T06:05:24.190Z,1.11
2019-01-31T06:07:53.855Z,1.14
2019-01-31T06:10:23.334Z,1.14
2019-01-31T06:12:52.953Z,1.14
2019-01-31T06:15:22.570Z,1.14
2019-01-31T06:17:52.068Z,1.12
2019-01-31T06:20:25.353Z,1.13
2019-01-31T06:22:55.038Z,1.14
2019-01-31T06:25:24.697Z,1.15
2019-01-31T06:27:54.411Z,1.15
2019-01-31T06:30:23.965Z,1.16
2019-01-31T06:32:53.544Z,1.16
2019-01-31T06:35:23.177Z,1.18
2019-01-31T06:37:52.711Z,1.19
2019-01-31T06:40:22.852Z,1.22
2019-01-31T06:42:52.500Z,1.24
2019-01-31T06:45:23.154Z,1.28
2019-01-31T06:47:52.833Z,1.31
2019-01-31T06:50:22.324Z,1.36
2019-01-31T06:52:51.959Z,1.41
2019-01-31T06:55:21.721Z,1.45
2019-01-31T06:57:51.255Z,1.50
2019-01-31T07:00:25.148Z,1.55
2019-01-31T07:02:54.784Z,1.60
2019-01-31T07:05:24.400Z,1.65
2019-01-31T07:07:53.986Z,1.70
2019-01-31T07:10:26.428Z,1.73
2019-01-31T07:12:56.010Z,1.77
2019-01-31T07:15:25.650Z,1.80
2019-01-31T07:17:55.143Z,1.85
2019-01-31T07:20:24.909Z,1.90
2019-01-31T07:22:54.545Z,1.94
2019-01-31T07:25:25.568Z,1.98
2019-01-31T07:27:55.244Z,2.01
2019-01-31T07:30:26.861Z,2.05
2019-01-31T07:32:56.418Z,2.07
2019-01-31T07:35:26.023Z,2.11
2019-01-31T07:37:55.650Z,2.14
2019-01-31T07:40:25.341Z,2.17
2019-01-31T07:42:54.932Z,2.20
2019-01-31T07:45:30.646Z,2.24
2019-01-31T07:48:00.423Z,2.27
2019-01-31T07:50:30.071Z,2.30
2019-01-31T07:52:59.690Z,2.35
2019-01-31T07:55:29.308Z,2.40
2019-01-31T07:57:58.841Z,2.46
2019-01-31T08:00:28.629Z,2.52
2019-01-31T08:02:58.374Z,2.59
2019-01-31T08:05:28.204Z,2.65
2019-01-31T08:07:58.608Z,2.71
2019-01-31T08:10:35.633Z,2.77
2019-01-31T08:13:05.452Z,2.82
2019-01-31T08:15:35.106Z,2.89
2019-01-31T08:18:05.041Z,2.95
2019-01-31T08:20:34.702Z,3.02
2019-01-31T08:23:04.269Z,3.07
2019-01-31T08:25:33.834Z,3.13
2019-01-31T08:28:03.580Z,3.16
2019-01-31T08:30:37.842Z,3.21
2019-01-31T08:33:07.801Z,3.26
2019-01-31T08:35:37.482Z,3.31
2019-01-31T08:38:07.109Z,3.36
2019-01-31T08:40:36.706Z,3.40
2019-01-31T08:43:06.369Z,3.43
2019-01-31T08:45:35.995Z,3.47
2019-01-31T08:48:06.023Z,3.50
2019-01-31T08:50:35.823Z,3.52
2019-01-31T08:53:05.525Z,3.55
2019-01-31T08:55:35.269Z,3.57
2019-01-31T08:58:05.033Z,3.59
2019-01-31T09:00:34.675Z,3.61
2019-01-31T09:03:04.424Z,3.65
2019-01-31T09:05:34.209Z,3.68
2019-01-31T09:08:03.775Z,3.72
2019-01-31T09:10:37.014Z,3.75
2019-01-31T09:13:09.412Z,3.79
2019-01-31T09:15:39.056Z,3.83
2019-01-31T09:18:08.818Z,3.85
2019-01-31T09:20:54.780Z,3.89
2019-01-31T09:23:34.690Z,3.94
2019-01-31T09:26:11.350Z,3.97
2019-01-31T09:29:06.430Z,4.01
2019-01-31T09:32:08.828Z,4.04
2019-01-31T09:35:00.544Z,4.07
2019-01-31T09:38:17.840Z,4.13
2019-01-31T09:41:00.947Z,4.16
2019-01-31T09:44:17.181Z,4.18
2019-01-31T09:47:16.710Z,4.19
2019-01-31T09:50:05.686Z,4.22
2019-01-31T09:53:03.711Z,4.20
2019-01-31T09:56:03.315Z,4.21
2019-01-31T09:59:13.097Z,4.25
2019-01-31T10:01:59.194Z,4.29
2019-01-31T10:04:35.830Z,4.30
2019-01-31T10:07:41.321Z,4.30
2019-01-31T10:10:30.548Z,4.29
2019-01-31T10:13:22.455Z,4.31
2019-01-31T10:16:17.372Z,4.31
2019-01-31T10:19:02.887Z,4.32
2019-01-31T10:21:45.610Z,4.35
2019-01-31T10:24:28.556Z,4.35
2019-01-31T10:27:14.691Z,4.38
2019-01-31T10:30:07.997Z,4.44
2019-01-31T10:32:53.412Z,4.52
2019-01-31T10:35:48.310Z,4.64
2019-01-31T10:38:38.573Z,4.77
2019-01-31T10:41:21.213Z,4.92
2019-01-31T10:44:07.190Z,5.07
2019-01-31T10:46:46.687Z,5.19
2019-01-31T10:49:29.575Z,5.30
2019-01-31T10:52:39.508Z,5.37
2019-01-31T10:55:25.462Z,5.44
2019-01-31T10:58:20.405Z,5.51
2019-01-31T11:01:00.648Z,5.58
2019-01-31T11:03:46.462Z,5.65
2019-01-31T11:06:38.111Z,5.81
2019-01-31T11:10:05.627Z,5.84
2019-01-31T11:13:15.352Z,5.61
2019-01-31T11:16:42.865Z,6.14
2019-01-31T11:19:52.673Z,6.30
2019-01-31T11:23:24.223Z,6.44
2019-01-31T11:26:34.029Z,6.53
2019-01-31T11:29:43.827Z,6.61
2019-01-31T11:32:53.563Z,6.67
2019-01-31T11:36:21.094Z,6.75
2019-01-31T11:39:30.832Z,6.85
2019-01-31T11:42:40.605Z,6.95
2019-01-31T11:45:50.364Z,7.02
2019-01-31T11:49:00.117Z,6.64
2019-01-31T11:52:27.668Z,6.99
2019-01-31T11:55:37.390Z,7.23
2019-01-31T11:58:47.137Z,7.25
2019-01-31T12:01:36.063Z,7.29
2019-01-31T12:04:17.783Z,7.32
2019-01-31T12:07:06.726Z,7.36
2019-01-31T12:09:55.843Z,7.35
2019-01-31T12:12:25.440Z,7.32
2019-01-31T12:15:14.744Z,7.30
2019-01-31T12:18:03.610Z,7.26
2019-01-31T12:20:52.467Z,7.23
2019-01-31T12:23:41.330Z,6.86
2019-01-31T12:26:30.273Z,6.82
2019-01-31T12:28:59.789Z,6.76
2019-01-31T12:31:48.697Z,7.19
2019-01-31T12:34:37.629Z,7.20
2019-01-31T12:37:26.469Z,6.94
2019-01-31T12:40:36.188Z,7.22
2019-01-31T12:43:34.700Z,7.24
2019-01-31T12:46:15.820Z,7.26
2019-01-31T12:49:04.758Z,7.30
2019-01-31T12:51:54.067Z,7.18
2019-01-31T12:54:42.890Z,7.30
2019-01-31T12:57:31.714Z,7.12
2019-01-31T13:00:41.431Z,7.22
2019-01-31T13:03:30.397Z,7.16
2019-01-31T13:06:11.469Z,7.15
2019-01-31T13:08:50.696Z,7.12
2019-01-31T13:11:39.605Z,7.10
2019-01-31T13:14:28.710Z,7.05
2019-01-31T13:17:17.470Z,7.02
2019-01-31T13:20:26.746Z,6.47
2019-01-31T13:23:05.863Z,6.96
2019-01-31T13:25:54.788Z,6.94
2019-01-31T13:28:43.710Z,6.90
2019-01-31T13:31:32.554Z,6.85
2019-01-31T13:34:21.426Z,6.81
2019-01-31T13:37:10.333Z,6.76
2019-01-31T13:39:58.813Z,6.71
2019-01-31T13:42:47.909Z,6.66
2019-01-31T13:45:36.939Z,6.61
2019-01-31T13:48:25.806Z,6.56
2019-01-31T13:51:14.610Z,6.52
2019-01-31T13:54:03.602Z,6.49
2019-01-31T13:56:52.455Z,6.46
2019-01-31T13:59:41.304Z,6.45
2019-01-31T14:02:10.903Z,6.43
2019-01-31T14:04:59.726Z,6.41
2019-01-31T14:10:51.163Z,6.38
2019-01-31T14:13:39.992Z,6.34
2019-01-31T14:16:28.836Z,6.31
2019-01-31T14:19:17.608Z,6.29
2019-01-31T14:22:06.594Z,6.27
2019-01-31T14:24:55.409Z,6.28
2019-01-31T14:27:44.413Z,6.27
2019-01-31T14:30:54.188Z,6.27
2019-01-31T14:33:43.040Z,6.27
2019-01-31T14:36:52.738Z,6.29
2019-01-31T14:39:41.590Z,6.30
2019-01-31T14:42:30.431Z,6.31
2019-01-31T14:45:19.317Z,6.32
2019-01-31T14:48:08.334Z,6.34
2019-01-31T14:50:38.115Z,6.36
2019-01-31T14:53:27.063Z,6.37
2019-01-31T14:56:15.985Z,6.40
2019-01-31T14:59:04.905Z,6.38
2019-01-31T15:01:53.710Z,6.37
2019-01-31T15:04:35.578Z,6.35
2019-01-31T15:07:05.245Z,6.30
2019-01-31T15:09:54.099Z,6.25
2019-01-31T15:12:43.008Z,6.20
2019-01-31T15:15:31.868Z,6.14
2019-01-31T15:18:20.813Z,6.06
2019-01-31T15:20:50.316Z,5.97
2019-01-31T15:23:39.225Z,5.87
2019-01-31T15:26:29.106Z,5.76
2019-01-31T15:29:18.747Z,5.66
2019-01-31T15:32:07.743Z,5.48
2019-01-31T15:34:56.542Z,5.47
2019-01-31T15:37:45.451Z,5.36
2019-01-31T15:40:53.630Z,5.25
2019-01-31T15:43:42.577Z,4.57
2019-01-31T15:46:31.418Z,5.04
2019-01-31T15:49:20.251Z,4.47
2019-01-31T15:52:09.201Z,4.81
2019-01-31T15:54:58.040Z,4.69
2019-01-31T15:57:46.944Z,4.59
2019-01-31T16:00:56.672Z,4.48
2019-01-31T16:03:45.569Z,4.37
2019-01-31T16:06:34.401Z,4.25
2019-01-31T16:09:24.259Z,4.13
2019-01-31T16:12:13.847Z,4.03
2019-01-31T16:15:02.818Z,3.91
2019-01-31T16:17:52.506Z,3.80
2019-01-31T16:20:22.783Z,3.69
2019-01-31T16:23:11.877Z,3.57
2019-01-31T16:25:41.537Z,3.47
2019-01-31T16:28:30.463Z,3.36
2019-01-31T16:31:19.246Z,3.25
2019-01-31T16:34:08.150Z,3.13
2019-01-31T16:36:57.091Z,3.03
2019-01-31T16:39:45.944Z,2.91
2019-01-31T16:42:34.870Z,2.79
2019-01-31T16:45:23.836Z,2.68
2019-01-31T16:48:32.019Z,2.56
2019-01-31T16:51:20.847Z,2.05
2019-01-31T16:54:09.783Z,2.33
2019-01-31T16:56:58.713Z,2.20
2019-01-31T16:59:47.595Z,1.62
2019-01-31T17:02:36.539Z,2.01
2019-01-31T17:14:54.616Z,1.62
2019-01-31T17:17:43.574Z,1.53
2019-01-31T17:39:26.999Z,0.98
2019-01-31T17:41:56.576Z,0.88
2019-01-31T21:52:04.211Z,1.54
2019-01-31T22:24:55.098Z,1.78
2019-01-31T22:27:44.098Z,1.80
2019-01-31T22:36:24.103Z,1.86
2019-01-31T22:39:13.001Z,1.83
2019-01-31T23:06:01.677Z,2.14
2019-01-31T23:11:39.635Z,2.18
2019-01-31T23:14:28.531Z,2.21
2019-01-31T23:16:58.190Z,1.86
2019-01-31T23:19:47.109Z,2.24
2019-01-31T23:22:35.909Z,1.96
2019-01-31T23:25:24.773Z,2.28
2019-01-31T23:28:14.373Z,2.30
2019-01-31T23:33:58.522Z,2.17
2019-01-31T23:36:47.468Z,2.36
2019-01-31T23:39:36.243Z,2.22
2019-01-31T23:42:25.166Z,2.39
2019-01-31T23:45:34.895Z,2.42
2019-01-31T23:48:23.816Z,2.45
2019-01-31T23:51:12.677Z,2.48
2019-01-31T23:54:01.540Z,2.50
2019-01-31T23:56:50.416Z,2.53
2019-01-31T23:59:39.258Z,2.54
